KBTR/BTR METAR and TAF weather

Enter ICAO airport designator
Station Type Date Time Source
KBTR METAR 2021/04/13 07:53 UTC NOAA

KBTR 130753Z AUTO 00000KT 10SM CLR 16/14 A2993 RMK AO2 SLP135 T01560144 $


Station Type Date Time Source
KBTR Decoded METAR 2021/04/13 07:53 UTC NOAA

BATON ROUGE METRO RYAN FIELD, LA, United States (KBTR) 30-32N 91-09W 21M
Apr 13, 2021 - 03:53 AM EDT / 2021.04.13 0753 UTC
Wind: Calm:0
Visibility: 10 mile(s):0
Sky conditions: clear
Temperature: 60.1 F (15.6 C)
Dew Point: 57.9 F (14.4 C)
Relative Humidity: 92%
Pressure (altimeter): 29.93 in. Hg (1013 hPa)
ob: KBTR 130753Z AUTO 00000KT 10SM CLR 16/14 A2993 RMK AO2 SLP135 T01560144
cycle: 8

Station Type Date Time Source
KBTR TAF 2021/04/13 06:22 UTC NOAA

TAF KBTR 130520Z 1306/1406 11004KT P6SM SKC
FM131300 11004KT P6SM SCT025 OVC060
FM131600 12006KT P6SM VCTS SCT010CB OVC025
FM132300 10008KT 6SM SHRA BR VCTS SCT010CB OVC035
FM140000 11009KT P6SM SCT008 OVC025

Example: see airport list